Terminal Aerodrome Forecast
Issued by NWS

Home | Current Version | Previous Version | Text Only | Print | Product List | Glossary On
Versions: 1 2 3 4 5 6 7 8 9 10 11 12 13
000
FTUS42 TJSJ 231743
TAFJPS
TAF
TJPS 231743Z 2318/2418 13010KT P6SM VCSH SCT030 SCT060
     FM232330 05005KT P6SM SCT060
     FM241500 15015KT P6SM VCTS SCT025CB BKN050
      AMD NOT SKED TIL 240300=

USA.gov is the U.S. government's official web portal to all federal, state and local government web resources and services.